KTXK/TXK METAR and TAF weather

Enter ICAO airport designator
Station Type Date Time Source
KTXK METAR 2022/01/18 05:53 UTC NOAA

KTXK 180553Z AUTO 17009KT 10SM CLR 10/M01 A3008 RMK AO2 SLP182 T01001011 10117 20067 401560006 58007


Station Type Date Time Source
KTXK Decoded METAR 2022/01/18 05:53 UTC NOAA

TEXARKANA RGNL WEBB FIELD, AR, United States (KTXK) 33-27N 093-59W 111M
Jan 18, 2022 - 12:53 AM EST / 2022.01.18 0553 UTC
Wind: from the S (170 degrees) at 10 MPH (9 KT):0
Visibility: 10 mile(s):0
Sky conditions: clear
Temperature: 50.0 F (10.0 C)
Dew Point: 30.0 F (-1.1 C)
Relative Humidity: 45%
Pressure (altimeter): 30.08 in. Hg (1018 hPa)
Pressure tendency: 0.02 inches (0.7 hPa) lower than three hours ago
ob: KTXK 180553Z AUTO 17009KT 10SM CLR 10/M01 A3008 RMK AO2 SLP182 T01001011 10117 20067 401560006 58007
cycle: 6

Station Type Date Time Source
KTXK TAF 2022/01/18 06:42 UTC NOAA

TAF KTXK 180539Z 1806/1906 16005KT P6SM SCT280
FM180800 18005KT P6SM BKN250
FM181500 18010KT P6SM BKN250
FM181700 19013G20KT P6SM SCT250
FM182100 19013G20KT P6SM SCT035 SCT250
FM190000 18011KT P6SM SCT035 SCT250

Example: see airport list